createdAt,value
2018-01-22T00:00:02.710Z,3.30
2018-01-22T00:02:29.014Z,3.30
2018-01-22T00:04:55.283Z,3.30
2018-01-22T00:07:22.252Z,3.30
2018-01-22T00:09:48.766Z,3.30
2018-01-22T00:12:15.011Z,3.40
2018-01-22T00:14:42.047Z,3.30
2018-01-22T00:17:09.091Z,3.30
2018-01-22T00:19:35.355Z,3.30
2018-01-22T00:22:01.647Z,3.40
2018-01-22T00:24:28.511Z,3.40
2018-01-22T00:26:54.757Z,3.30
2018-01-22T00:29:20.974Z,3.30
2018-01-22T00:31:47.278Z,3.30
2018-01-22T00:34:13.510Z,3.40
2018-01-22T00:36:39.802Z,3.30
2018-01-22T00:39:06.108Z,3.30
2018-01-22T00:41:32.611Z,3.30
2018-01-22T00:43:58.851Z,3.40
2018-01-22T00:46:27.306Z,3.30
2018-01-22T00:48:55.840Z,3.40
2018-01-22T00:51:24.015Z,3.40
2018-01-22T00:53:51.027Z,3.40
2018-01-22T00:56:22.841Z,3.40
2018-01-22T00:58:49.944Z,3.40
2018-01-22T01:01:16.262Z,3.40
2018-01-22T01:03:42.515Z,3.50
2018-01-22T01:06:09.035Z,3.40
2018-01-22T01:08:35.343Z,3.50
2018-01-22T01:11:01.632Z,3.50
2018-01-22T01:13:27.869Z,3.40
2018-01-22T01:15:54.190Z,3.40
2018-01-22T01:18:20.408Z,3.40
2018-01-22T01:20:46.946Z,3.40
2018-01-22T01:23:13.199Z,3.40
2018-01-22T01:25:40.315Z,3.50
2018-01-22T01:28:08.442Z,3.50
2018-01-22T01:30:34.703Z,3.50
2018-01-22T01:33:00.935Z,3.50
2018-01-22T01:35:27.233Z,3.50
2018-01-22T01:37:53.503Z,3.60
2018-01-22T01:40:19.760Z,3.60
2018-01-22T01:42:46.774Z,3.50
2018-01-22T01:45:13.059Z,3.50
2018-01-22T01:47:40.051Z,3.60
2018-01-22T01:50:06.462Z,3.60
2018-01-22T01:52:32.702Z,3.60
2018-01-22T01:54:59.477Z,3.60
2018-01-22T01:57:25.766Z,3.70
2018-01-22T01:59:52.270Z,3.60
2018-01-22T02:02:18.575Z,3.60
2018-01-22T02:04:44.855Z,3.60
2018-01-22T02:07:11.160Z,3.60
2018-01-22T02:09:37.423Z,3.60
2018-01-22T02:12:03.725Z,3.60
2018-01-22T02:14:30.760Z,3.60
2018-01-22T02:16:57.032Z,3.70
2018-01-22T02:19:23.327Z,3.70
2018-01-22T02:21:49.574Z,3.70
2018-01-22T02:24:15.843Z,3.70
2018-01-22T02:26:42.085Z,3.80
2018-01-22T02:29:08.530Z,3.80
2018-01-22T02:31:37.780Z,3.70
2018-01-22T02:34:04.051Z,3.70
2018-01-22T02:36:30.284Z,3.80
2018-01-22T02:38:56.531Z,3.80
2018-01-22T02:41:25.720Z,3.80
2018-01-22T02:43:52.019Z,3.80
2018-01-22T02:46:18.324Z,3.80
2018-01-22T02:48:48.614Z,3.80
2018-01-22T02:51:14.891Z,3.80
2018-01-22T02:53:41.275Z,3.80
2018-01-22T02:56:07.560Z,3.90
2018-01-22T02:58:33.828Z,3.80
2018-01-22T03:01:00.133Z,3.80
2018-01-22T03:03:26.411Z,4.00
2018-01-22T03:05:52.818Z,3.90
2018-01-22T03:08:19.115Z,3.90
2018-01-22T03:10:45.372Z,3.90
2018-01-22T03:13:11.655Z,3.90
2018-01-22T03:15:37.924Z,3.90
2018-01-22T03:18:04.631Z,4.00
2018-01-22T03:20:31.628Z,4.00
2018-01-22T03:22:57.946Z,4.00
2018-01-22T03:25:24.943Z,3.90
2018-01-22T03:27:51.244Z,3.90
2018-01-22T03:30:17.545Z,4.00
2018-01-22T03:32:44.127Z,3.90
2018-01-22T03:35:10.408Z,4.00
2018-01-22T03:37:37.156Z,4.00
2018-01-22T03:40:18.378Z,4.00
2018-01-22T03:42:44.672Z,4.00
2018-01-22T03:45:11.011Z,4.10
2018-01-22T03:47:37.330Z,4.00
2018-01-22T03:50:04.346Z,4.00
2018-01-22T03:52:30.700Z,4.00
2018-01-22T03:54:57.392Z,4.00
2018-01-22T03:57:23.649Z,4.00
2018-01-22T03:59:50.019Z,4.10
2018-01-22T04:02:16.254Z,4.00
2018-01-22T04:04:43.275Z,4.10
2018-01-22T04:07:09.635Z,4.10
2018-01-22T04:09:35.923Z,4.10
2018-01-22T04:12:02.491Z,4.10
2018-01-22T04:14:29.508Z,4.10
2018-01-22T04:16:55.783Z,4.10
2018-01-22T04:19:22.041Z,4.10
2018-01-22T04:21:48.306Z,4.10
2018-01-22T04:24:14.630Z,4.20
2018-01-22T04:26:40.895Z,4.30
2018-01-22T04:29:07.155Z,4.20
2018-01-22T04:31:33.438Z,4.20
2018-01-22T04:33:59.702Z,4.20
2018-01-22T04:36:26.187Z,4.20
2018-01-22T04:38:52.483Z,4.20
2018-01-22T04:41:18.731Z,4.20
2018-01-22T04:43:45.017Z,4.20
2018-01-22T04:46:11.288Z,4.20
2018-01-22T04:48:37.546Z,4.30
2018-01-22T04:51:03.943Z,4.40
2018-01-22T04:53:30.948Z,4.40
2018-01-22T04:55:57.201Z,4.40
2018-01-22T04:58:23.473Z,4.40
2018-01-22T05:00:49.734Z,4.30
2018-01-22T05:03:16.022Z,4.40
2018-01-22T05:05:42.284Z,4.30
2018-01-22T05:08:08.555Z,4.40
2018-01-22T05:10:34.801Z,4.40
2018-01-22T05:13:01.090Z,4.40
2018-01-22T05:15:27.368Z,4.40
2018-01-22T05:17:53.619Z,4.50
2018-01-22T05:20:19.898Z,4.50
2018-01-22T05:22:46.146Z,4.50
2018-01-22T05:25:12.421Z,4.50
2018-01-22T05:27:38.679Z,4.60
2018-01-22T05:30:04.962Z,4.60
2018-01-22T05:32:31.287Z,4.70
2018-01-22T05:34:58.331Z,4.60
2018-01-22T05:37:24.952Z,4.60
2018-01-22T05:39:51.184Z,4.70
2018-01-22T05:42:18.219Z,4.70
2018-01-22T05:44:44.482Z,4.70
2018-01-22T05:47:11.495Z,4.80
2018-01-22T05:49:37.765Z,4.80
2018-01-22T05:52:04.032Z,4.80
2018-01-22T05:54:30.270Z,4.80
2018-01-22T05:56:56.586Z,4.80
2018-01-22T05:59:22.859Z,4.80
2018-01-22T06:01:49.131Z,4.90
2018-01-22T06:04:15.440Z,4.90
2018-01-22T06:06:41.722Z,5.00
2018-01-22T06:09:08.119Z,4.90
2018-01-22T06:11:34.359Z,5.00
2018-01-22T06:14:00.748Z,5.00
2018-01-22T06:16:31.287Z,5.10
2018-01-22T06:18:57.761Z,5.00
2018-01-22T06:21:31.697Z,5.10
2018-01-22T06:23:58.259Z,5.10
2018-01-22T06:26:24.487Z,5.20
2018-01-22T06:28:51.697Z,5.40
2018-01-22T06:31:19.807Z,5.30
2018-01-22T06:33:46.084Z,5.40
2018-01-22T06:36:13.083Z,5.50
2018-01-22T06:38:39.639Z,5.50
2018-01-22T06:41:06.003Z,5.50
2018-01-22T06:43:32.287Z,5.50
2018-01-22T06:45:59.383Z,5.60
2018-01-22T06:48:25.683Z,5.60
2018-01-22T06:50:51.974Z,5.60
2018-01-22T06:53:18.228Z,5.70
2018-01-22T06:55:44.480Z,5.70
2018-01-22T06:58:11.044Z,5.80
2018-01-22T07:00:37.282Z,5.80
2018-01-22T07:03:04.315Z,5.80
2018-01-22T07:05:30.573Z,5.80
2018-01-22T07:07:56.887Z,5.90
2018-01-22T07:10:23.147Z,5.90
2018-01-22T07:12:49.638Z,5.90
2018-01-22T07:15:15.902Z,6.00
2018-01-22T07:17:42.154Z,6.00
2018-01-22T07:20:08.491Z,6.10
2018-01-22T07:22:34.771Z,6.20
2018-01-22T07:25:01.055Z,6.30
2018-01-22T07:27:27.306Z,6.40
2018-01-22T07:29:53.573Z,6.50
2018-01-22T07:32:19.826Z,6.60
2018-01-22T07:34:46.095Z,6.70
2018-01-22T07:37:12.382Z,6.80
2018-01-22T07:39:38.639Z,6.90
2018-01-22T07:42:04.970Z,7.00
2018-01-22T07:44:33.011Z,7.00
2018-01-22T07:46:59.314Z,7.20
2018-01-22T07:49:25.567Z,7.30
2018-01-22T07:51:52.643Z,7.40
2018-01-22T07:54:18.911Z,7.40
2018-01-22T07:56:45.168Z,7.40
2018-01-22T07:59:12.212Z,7.50
2018-01-22T08:01:38.484Z,7.50
2018-01-22T08:04:04.727Z,7.60
2018-01-22T08:06:31.079Z,7.70
2018-01-22T08:08:57.359Z,7.70
2018-01-22T08:11:27.368Z,7.80
2018-01-22T08:13:54.188Z,7.90
2018-01-22T08:16:20.443Z,7.90
2018-01-22T08:18:46.690Z,8.00
2018-01-22T08:21:13.734Z,8.00
2018-01-22T08:23:40.818Z,8.10
2018-01-22T08:26:07.075Z,8.10
2018-01-22T08:28:33.315Z,8.20
2018-01-22T08:30:59.592Z,8.20
2018-01-22T08:33:25.829Z,8.30
2018-01-22T08:35:52.086Z,8.30
2018-01-22T08:38:18.355Z,8.30
2018-01-22T08:40:44.659Z,8.20
2018-01-22T08:43:10.935Z,8.30
2018-01-22T08:45:37.908Z,8.30
2018-01-22T08:48:04.238Z,8.30
2018-01-22T08:50:30.502Z,8.40
2018-01-22T08:52:56.748Z,8.40
2018-01-22T08:55:23.002Z,8.40
2018-01-22T08:57:49.991Z,8.60
2018-01-22T09:00:16.293Z,8.60
2018-01-22T09:02:46.599Z,8.70
2018-01-22T09:05:12.882Z,8.70
2018-01-22T09:07:39.134Z,8.80
2018-01-22T09:10:05.391Z,8.90
2018-01-22T09:12:31.636Z,9.00
2018-01-22T09:14:57.918Z,9.10
2018-01-22T09:17:24.946Z,9.10
2018-01-22T09:19:51.258Z,9.00
2018-01-22T09:22:18.275Z,8.90
2018-01-22T09:24:44.890Z,8.90
2018-01-22T09:27:26.091Z,8.90
2018-01-22T09:29:52.347Z,8.90
2018-01-22T09:32:19.350Z,9.10
2018-01-22T09:34:45.573Z,9.00
2018-01-22T09:37:12.262Z,9.20
2018-01-22T09:39:39.267Z,9.20
2018-01-22T09:42:05.531Z,9.20
2018-01-22T09:44:31.770Z,9.30
2018-01-22T09:46:58.123Z,9.30
2018-01-22T09:49:24.379Z,9.30
2018-01-22T09:51:50.626Z,9.30
2018-01-22T09:54:16.895Z,9.20
2018-01-22T09:56:43.130Z,9.20
2018-01-22T09:59:10.139Z,9.20
2018-01-22T10:01:36.575Z,9.20
2018-01-22T10:04:02.819Z,9.40
2018-01-22T10:06:29.663Z,9.40
2018-01-22T10:08:55.975Z,9.50
2018-01-22T10:11:22.219Z,9.50
2018-01-22T10:13:48.511Z,9.50
2018-01-22T10:16:14.751Z,9.50
2018-01-22T10:18:41.022Z,9.40
2018-01-22T10:21:07.300Z,9.40
2018-01-22T10:23:33.544Z,9.40
2018-01-22T10:26:00.304Z,9.40
2018-01-22T10:28:26.565Z,9.40
2018-01-22T10:30:52.862Z,9.40
2018-01-22T10:33:19.215Z,9.30
2018-01-22T10:35:46.255Z,9.30
2018-01-22T10:38:12.486Z,9.30
2018-01-22T10:40:38.815Z,9.40
2018-01-22T10:43:05.055Z,9.50
2018-01-22T10:45:31.409Z,9.50
2018-01-22T10:47:58.331Z,9.40
2018-01-22T10:50:24.610Z,9.40
2018-01-22T10:52:50.920Z,9.40
2018-01-22T10:55:17.239Z,9.40
2018-01-22T10:57:45.873Z,9.50
2018-01-22T11:00:12.176Z,9.50
2018-01-22T11:02:38.438Z,9.60
2018-01-22T11:05:04.795Z,9.70
2018-01-22T11:07:31.034Z,9.80
2018-01-22T11:09:57.294Z,9.80
2018-01-22T11:12:24.983Z,9.80
2018-01-22T11:14:51.223Z,9.70
2018-01-22T11:17:17.467Z,9.70
2018-01-22T11:19:43.826Z,9.80
2018-01-22T11:22:10.095Z,9.80
2018-01-22T11:24:36.354Z,9.90
2018-01-22T11:27:02.615Z,10.00
2018-01-22T11:29:28.887Z,10.10
2018-01-22T11:31:55.296Z,10.10
2018-01-22T11:34:21.552Z,10.10
2018-01-22T11:36:47.786Z,10.00
2018-01-22T11:39:14.093Z,9.90
2018-01-22T11:41:42.464Z,9.90
2018-01-22T11:44:08.716Z,9.90
2018-01-22T11:46:34.966Z,9.90
2018-01-22T11:49:01.200Z,9.90
2018-01-22T11:51:27.503Z,9.80
2018-01-22T11:53:53.749Z,9.80
2018-01-22T11:56:20.015Z,9.90
2018-01-22T11:58:46.383Z,9.90
2018-01-22T12:01:13.163Z,10.00
2018-01-22T12:03:40.091Z,10.00
2018-01-22T12:06:06.359Z,10.00
2018-01-22T12:08:33.331Z,9.90
2018-01-22T12:10:59.627Z,9.90
2018-01-22T12:13:26.623Z,9.80
2018-01-22T12:15:53.311Z,9.80
2018-01-22T12:18:19.619Z,9.70
2018-01-22T12:20:45.886Z,9.70
2018-01-22T12:23:13.046Z,9.70
2018-01-22T12:25:39.287Z,9.60
2018-01-22T12:28:05.559Z,9.70
2018-01-22T12:30:32.415Z,9.80
2018-01-22T12:32:58.683Z,9.80
2018-01-22T12:35:39.891Z,9.80
2018-01-22T12:38:06.142Z,9.80
2018-01-22T12:40:33.039Z,9.70
2018-01-22T12:42:59.590Z,9.70
2018-01-22T12:45:25.838Z,9.80
2018-01-22T12:47:52.228Z,9.80
2018-01-22T12:50:18.526Z,9.80
2018-01-22T12:53:00.074Z,9.90
2018-01-22T12:55:26.310Z,9.80
2018-01-22T12:57:53.366Z,9.60
2018-01-22T13:00:20.007Z,9.60
2018-01-22T13:02:46.858Z,9.50
2018-01-22T13:05:13.142Z,9.50
2018-01-22T13:07:39.666Z,9.50
2018-01-22T13:10:06.639Z,9.40
2018-01-22T13:12:33.903Z,9.30
2018-01-22T13:15:00.175Z,9.40
2018-01-22T13:17:26.431Z,9.60
2018-01-22T13:19:52.735Z,9.70
2018-01-22T13:22:18.975Z,9.70
2018-01-22T13:24:46.266Z,9.70
2018-01-22T13:27:12.590Z,9.70
2018-01-22T13:29:39.615Z,9.60
2018-01-22T13:32:05.979Z,9.60
2018-01-22T13:34:32.256Z,9.70
2018-01-22T13:36:58.755Z,9.60
2018-01-22T13:39:26.803Z,9.70
2018-01-22T13:41:53.172Z,9.80
2018-01-22T13:44:19.940Z,9.90
2018-01-22T13:46:47.013Z,9.90
2018-01-22T13:49:13.904Z,9.90
2018-01-22T13:51:40.404Z,10.00
2018-01-22T13:54:06.656Z,10.10
2018-01-22T13:56:33.650Z,10.40
2018-01-22T13:58:59.938Z,10.30
2018-01-22T14:01:26.938Z,10.40
2018-01-22T14:03:53.183Z,10.40
2018-01-22T14:06:19.443Z,10.50
2018-01-22T14:08:45.699Z,10.40
2018-01-22T14:11:11.950Z,10.50
2018-01-22T14:13:38.977Z,10.30
2018-01-22T14:16:05.239Z,10.30
2018-01-22T14:18:31.907Z,10.20
2018-01-22T14:20:58.150Z,10.30
2018-01-22T14:23:24.382Z,10.30
2018-01-22T14:25:50.634Z,10.30
2018-01-22T14:28:16.893Z,10.10
2018-01-22T14:30:43.179Z,10.10
2018-01-22T14:33:09.501Z,10.10
2018-01-22T14:35:35.759Z,9.90
2018-01-22T14:38:02.032Z,9.80
2018-01-22T14:40:29.286Z,9.70
2018-01-22T14:42:55.549Z,9.60
2018-01-22T14:45:22.139Z,9.50
2018-01-22T14:47:48.921Z,9.50
2018-01-22T14:50:15.139Z,9.50
2018-01-22T14:52:41.391Z,9.50
2018-01-22T14:55:07.635Z,9.50
2018-01-22T14:57:34.647Z,9.40
2018-01-22T15:00:00.900Z,9.40
2018-01-22T15:02:27.146Z,9.30
2018-01-22T15:04:53.398Z,9.40
2018-01-22T15:07:19.666Z,9.40
2018-01-22T15:09:46.862Z,9.20
2018-01-22T15:12:13.122Z,9.20
2018-01-22T15:14:39.359Z,9.20
2018-01-22T15:17:05.603Z,9.10
2018-01-22T15:19:31.902Z,9.10
2018-01-22T15:21:58.206Z,9.10
2018-01-22T15:24:24.491Z,9.00
2018-01-22T15:26:50.792Z,9.10
2018-01-22T15:29:17.959Z,9.10
2018-01-22T15:34:21.922Z,9.00
2018-01-22T15:36:48.171Z,9.10
2018-01-22T15:39:14.513Z,9.10
2018-01-22T15:41:40.763Z,9.10
2018-01-22T15:44:07.059Z,9.00
2018-01-22T15:46:34.086Z,9.00
2018-01-22T15:49:00.333Z,9.00
2018-01-22T15:51:26.594Z,9.00
2018-01-22T15:53:52.873Z,8.90
2018-01-22T15:56:19.154Z,8.90
2018-01-22T15:58:45.390Z,8.90
2018-01-22T16:01:11.666Z,8.90
2018-01-22T16:03:37.999Z,8.80
2018-01-22T16:06:04.295Z,8.80
2018-01-22T16:08:30.556Z,8.80
2018-01-22T16:10:56.835Z,8.80
2018-01-22T16:13:23.071Z,8.80
2018-01-22T16:15:49.367Z,8.80
2018-01-22T16:18:15.614Z,8.70
2018-01-22T16:20:41.926Z,8.60
2018-01-22T16:23:08.255Z,8.60
2018-01-22T16:25:34.507Z,8.60
2018-01-22T16:28:00.799Z,8.60
2018-01-22T16:30:27.055Z,8.50
2018-01-22T16:32:53.327Z,8.60
2018-01-22T16:35:19.573Z,8.50
2018-01-22T16:37:45.845Z,8.60
2018-01-22T16:40:12.115Z,8.50
2018-01-22T16:42:39.196Z,8.50
2018-01-22T16:45:05.455Z,8.50
2018-01-22T16:47:37.988Z,8.50
2018-01-22T16:50:04.999Z,8.50
2018-01-22T16:52:31.267Z,8.50
2018-01-22T16:54:57.579Z,8.60
2018-01-22T16:57:23.830Z,8.50
2018-01-22T16:59:50.814Z,8.50
2018-01-22T17:02:17.106Z,8.50
2018-01-22T17:04:43.382Z,8.50
2018-01-22T17:07:10.150Z,8.50
2018-01-22T17:09:36.411Z,8.50
2018-01-22T17:12:03.808Z,8.50
2018-01-22T17:14:30.150Z,8.40
2018-01-22T17:16:56.423Z,8.40
2018-01-22T17:19:22.702Z,8.40
2018-01-22T17:21:49.292Z,8.50
2018-01-22T17:24:15.551Z,8.40
2018-01-22T17:26:42.279Z,8.40
2018-01-22T17:29:08.547Z,8.40
2018-01-22T17:31:34.868Z,8.40
2018-01-22T17:34:01.867Z,8.30
2018-01-22T17:36:28.135Z,8.30
2018-01-22T17:38:54.407Z,8.30
2018-01-22T17:41:22.850Z,8.30
2018-01-22T17:43:49.419Z,8.30
2018-01-22T17:46:15.779Z,8.40
2018-01-22T17:48:42.051Z,8.30
2018-01-22T17:51:08.296Z,8.40
2018-01-22T17:53:34.587Z,8.40
2018-01-22T17:56:00.851Z,8.40
2018-01-22T17:58:27.149Z,8.40
2018-01-22T18:00:53.458Z,8.30
2018-01-22T18:03:19.858Z,8.30
2018-01-22T18:05:46.135Z,8.30
2018-01-22T18:08:12.428Z,8.30
2018-01-22T18:10:38.718Z,8.20
2018-01-22T18:13:05.005Z,8.20
2018-01-22T18:15:31.257Z,8.20
2018-01-22T18:17:57.538Z,8.20
2018-01-22T18:20:23.795Z,8.30
2018-01-22T18:22:50.115Z,8.30
2018-01-22T18:25:16.379Z,8.20
2018-01-22T18:27:43.156Z,8.30
2018-01-22T18:30:09.423Z,8.20
2018-01-22T18:32:36.071Z,8.20
2018-01-22T18:35:02.363Z,8.20
2018-01-22T18:37:28.616Z,8.20
2018-01-22T18:39:54.887Z,8.10
2018-01-22T18:42:21.132Z,8.20
2018-01-22T18:44:47.418Z,8.20
2018-01-22T18:47:13.667Z,8.20
2018-01-22T18:49:39.939Z,8.10
2018-01-22T18:52:06.212Z,8.20
2018-01-22T18:54:32.462Z,8.20
2018-01-22T18:56:58.839Z,8.20
2018-01-22T18:59:25.842Z,8.20
2018-01-22T19:01:52.094Z,8.10
2018-01-22T19:04:18.459Z,8.10
2018-01-22T19:06:45.463Z,8.10
2018-01-22T19:09:11.716Z,8.10
2018-01-22T19:11:37.983Z,8.20
2018-01-22T19:14:04.223Z,8.10
2018-01-22T19:16:30.511Z,8.10
2018-01-22T19:18:56.795Z,8.10
2018-01-22T19:21:23.107Z,8.00
2018-01-22T19:23:49.469Z,8.10
2018-01-22T19:26:16.606Z,8.00
2018-01-22T19:28:42.892Z,8.00
2018-01-22T19:31:09.163Z,8.00
2018-01-22T19:33:36.155Z,8.10
2018-01-22T19:36:02.804Z,8.10
2018-01-22T19:38:29.227Z,8.10
2018-01-22T19:40:55.483Z,8.00
2018-01-22T19:43:21.775Z,8.00
2018-01-22T19:45:48.035Z,8.00
2018-01-22T19:48:14.284Z,8.10
2018-01-22T19:50:40.583Z,8.00
2018-01-22T19:53:06.918Z,8.00
2018-01-22T19:55:33.183Z,8.00
2018-01-22T19:58:00.160Z,8.00
2018-01-22T20:00:26.559Z,8.00
2018-01-22T20:02:52.829Z,8.00
2018-01-22T20:05:19.146Z,8.00
2018-01-22T20:07:45.652Z,8.00
2018-01-22T20:10:12.667Z,8.00
2018-01-22T20:12:38.960Z,8.00
2018-01-22T20:15:05.237Z,8.00
2018-01-22T20:17:31.546Z,8.00
2018-01-22T20:19:58.581Z,8.00
2018-01-22T20:22:24.846Z,8.00
2018-01-22T20:24:51.266Z,8.00
2018-01-22T20:27:17.555Z,8.00
2018-01-22T20:29:43.805Z,8.00
2018-01-22T20:32:10.083Z,8.00
2018-01-22T20:34:36.948Z,7.90
2018-01-22T20:37:03.241Z,7.90
2018-01-22T20:39:29.524Z,7.90
2018-01-22T20:41:55.779Z,7.90
2018-01-22T20:44:22.091Z,7.90
2018-01-22T20:46:51.297Z,8.00
2018-01-22T20:49:18.511Z,7.90
2018-01-22T20:51:44.795Z,7.90
2018-01-22T20:54:11.779Z,7.90
2018-01-22T20:56:38.051Z,7.90
2018-01-22T20:59:05.090Z,7.90
2018-01-22T21:01:31.398Z,7.90
2018-01-22T21:03:57.650Z,7.90
2018-01-22T21:06:23.913Z,7.90
2018-01-22T21:08:50.911Z,7.90
2018-01-22T21:11:19.614Z,7.90
2018-01-22T21:13:52.624Z,7.90
2018-01-22T21:16:18.947Z,7.90
2018-01-22T21:18:47.796Z,7.90
2018-01-22T21:21:14.448Z,7.80
2018-01-22T21:23:40.718Z,7.90
2018-01-22T21:26:07.760Z,7.90
2018-01-22T21:28:34.003Z,7.90
2018-01-22T21:31:00.330Z,7.90
2018-01-22T21:33:30.579Z,7.80
2018-01-22T21:35:56.898Z,7.80
2018-01-22T21:38:23.204Z,7.80
2018-01-22T21:40:49.486Z,7.80
2018-01-22T21:43:19.168Z,7.80
2018-01-22T21:45:46.383Z,7.80
2018-01-22T21:48:12.663Z,7.80
2018-01-22T21:50:38.899Z,7.80
2018-01-22T21:53:05.155Z,7.80
2018-01-22T21:55:31.416Z,7.70
2018-01-22T21:57:57.928Z,7.70
2018-01-22T22:00:24.230Z,7.70
2018-01-22T22:02:50.607Z,7.70
2018-01-22T22:05:17.169Z,7.70
2018-01-22T22:07:43.483Z,7.70
2018-01-22T22:10:09.771Z,7.60
2018-01-22T22:12:36.227Z,7.60
2018-01-22T22:15:07.426Z,7.50
2018-01-22T22:17:34.463Z,7.40
2018-01-22T22:20:00.761Z,7.40
2018-01-22T22:22:27.038Z,7.40
2018-01-22T22:24:55.635Z,7.40
2018-01-22T22:27:21.915Z,7.40
2018-01-22T22:29:48.194Z,7.40
2018-01-22T22:32:14.500Z,7.40
2018-01-22T22:34:40.735Z,7.50
2018-01-22T22:37:09.615Z,7.50
2018-01-22T22:39:35.937Z,7.50
2018-01-22T22:42:03.206Z,7.50
2018-01-22T22:44:29.495Z,7.50
2018-01-22T22:46:56.126Z,7.50
2018-01-22T22:49:22.395Z,7.50
2018-01-22T22:51:48.670Z,7.50
2018-01-22T22:54:14.907Z,7.50
2018-01-22T22:56:41.928Z,7.60
2018-01-22T22:59:08.245Z,7.60
2018-01-22T23:01:34.504Z,7.50
2018-01-22T23:04:00.763Z,7.60
2018-01-22T23:06:27.019Z,7.50
2018-01-22T23:08:54.613Z,7.60
2018-01-22T23:11:20.922Z,7.50
2018-01-22T23:13:47.224Z,7.50
2018-01-22T23:16:13.515Z,7.50
2018-01-22T23:18:39.796Z,7.50
2018-01-22T23:21:06.234Z,7.50
2018-01-22T23:23:32.570Z,7.50
2018-01-22T23:26:00.171Z,7.40
2018-01-22T23:28:28.143Z,7.40
2018-01-22T23:30:54.476Z,7.40
2018-01-22T23:33:22.821Z,7.50
2018-01-22T23:35:49.118Z,7.40
2018-01-22T23:38:17.807Z,7.30
2018-01-22T23:40:44.070Z,7.40
2018-01-22T23:43:10.320Z,7.30
2018-01-22T23:45:36.568Z,7.30
2018-01-22T23:48:04.231Z,7.30
2018-01-22T23:50:31.268Z,7.30
2018-01-22T23:52:57.576Z,7.20
2018-01-22T23:55:24.151Z,7.20
2018-01-22T23:57:50.407Z,7.20
